EPZG/IEG METAR and TAF weather

Enter ICAO airport designator
Station Type Date Time Source
EPZG METAR 2020/01/22 15:30 UTC NOAA

EPZG 221530Z 25007KT 5000 BR FEW025 OVC031 04/03 Q1029


Station Type Date Time Source
EPZG Decoded METAR 2020/01/22 15:30 UTC NOAA

Zielona Gora, Poland (EPZG) 51-56N 015-32E 192M
Jan 22, 2020 - 10:30 AM EST / 2020.01.22 1530 UTC
Wind: from the WSW (250 degrees) at 8 MPH (7 KT):0
Visibility: 3 mile(s):0
Sky conditions: overcast
Weather: mist
Temperature: 39 F (4 C)
Dew Point: 37 F (3 C)
Relative Humidity: 93%
Pressure (altimeter): 30.39 in. Hg (1029 hPa)
ob: EPZG 221530Z 25007KT 5000 BR FEW025 OVC031 04/03 Q1029
cycle: 15

Station Type Date Time Source
EPZG TAF 2012/06/28 21:49 UTC NOAA

TAF EPZG 282000Z 2821/2906 VRB02KT CAVOK
TEMPO 2823/2904 5000 BR PROB30 2900/2904 1500 BR BKN005

Example: see airport list